• Join FlightAware (Why Join?)
  • Login
  • US Flag 
07:59PM EDT


 

Airport Tracker/Info


-or-


 

Live Flight TrackerFlight Track Log ✈ SKW7426 ✈ 02-Oct-2013 ✈ KINL - KMSP

Flight Track Log - Related Links

Times and Time Zones

All times are in EDT time to prevent confusion due to time zone crossing. See the SKW7426 flight status page for this flight to view local times or setup timezone preferences in your user account.

Time Position Orientation Groundspeed Altitude Reporting Facility
EDT Latitude Longitude Course Direction KTS MPH feet Rate Location/Type
01:52PM 48.4525 -93.4128 193° South 243 280 6,600  Level Minneapolis Center
01:53PM 48.3778 -93.4314 189° South 258 297 11,300 3,960 Climbing Minneapolis Center
01:54PM 48.0162 -93.3736 191° South  Level Estimated
01:54PM 48.2889 -93.4392 183° South 265 305 14,800  Level Minneapolis Center
01:55PM 47.9246 -93.3690 190° South  Level Estimated
01:55PM 48.2089 -93.4469 184° South 277 319 17,300  Level Minneapolis Center
01:56PM 47.8429 -93.4307 207° Southwest  Level FlightAware Approximate
01:56PM 48.1253 -93.4556 184° South 293 337 19,100  Level Minneapolis Center
01:57PM 47.7304 -93.4224 191° South  Level Estimated
01:57PM 48.0364 -93.4661 185° South 308 354 20,300  Level Minneapolis Center
01:59PM 47.9417 -93.4764 184° South 324 373 21,700 1,440 Climbing Minneapolis Center
02:00PM 47.8269 -93.4881 184° South 341 392 23,400 1,260 Climbing Minneapolis Center
02:01PM 47.7300 -93.4989 184° South 348 400 24,400 900 Climbing Minneapolis Center
02:02PM 47.6319 -93.5097 184° South 354 407 25,300 780 Climbing Minneapolis Center
02:03PM 47.5322 -93.5211 184° South 360 414 26,100 720 Climbing Minneapolis Center
02:04PM 47.4078 -93.5333 184° South 370 426 26,900 720 Climbing Minneapolis Center
02:05PM 47.3036 -93.5447 184° South 376 433 27,600 480 Climbing Minneapolis Center
02:06PM 47.2000 -93.5547 184° South 378 435 28,000 180 Climbing Minneapolis Center
02:07PM 47.0928 -93.5658 184° South 386 444 28,000  Level Minneapolis Center
02:08PM 46.9669 -93.5794 184° South 383 441 28,000  Level Minneapolis Center
02:09PM 46.8614 -93.5914 184° South 382 440 28,000 -240 Level Minneapolis Center
02:10PM 46.7547 -93.6011 184° South 384 442 27,600 -780 Descending Minneapolis Center
02:11PM 46.6481 -93.6114 184° South 386 444 26,400 -1,320 Descending Minneapolis Center
02:12PM 46.5408 -93.6189 183° South 390 449 24,900 -1,500 Descending Minneapolis Center
02:13PM 46.4253 -93.6169 179° South 411 473 23,400 -1,620 Descending Minneapolis Center
02:14PM 46.2889 -93.6108 178° South 412 474 21,600 -1,620 Descending Minneapolis Center
02:15PM 46.1761 -93.6069 179° South 397 457 20,100 -1,500 Descending Minneapolis Center
02:16PM 46.0686 -93.6028 178° South 391 450 18,500 -1,500 Descending Minneapolis Center
02:17PM 45.9653 -93.5992 179° South 378 435 17,100 -1,260 Descending Minneapolis Center
02:18PM 45.8631 -93.5967 179° South 371 427 16,000 -540 Descending Minneapolis Center
02:19PM 45.7647 -93.5911 178° South 357 411 16,000 -60 Level Minneapolis Center
02:20PM 45.6456 -93.5869 179° South 358 412 15,900 -1,320 Descending Minneapolis Center
02:21PM 45.5489 -93.5819 178° South 349 402 13,300 -2,400 Descending Minneapolis Center
02:22PM 45.4569 -93.5397 162° South 348 400 11,000 -1,620 Descending Minneapolis Center
02:23PM 45.3803 -93.5139 167° South 276 318 10,000 -1,020 Descending Minneapolis Center
02:24PM 45.3081 -93.5067 176° South 263 303 9,000 -1,020 Descending Minneapolis Center
02:25PM 45.2367 -93.5006 177° South 258 297 8,000 -1,080 Descending Minneapolis Center
02:27PM 45.1506 -93.4933 177° South 259 298 6,800 -1,320 Descending Minneapolis Center
02:28PM 45.0881 -93.4575 158° South 245 282 5,300 -1,380 Descending Minneapolis Center
02:29PM 45.0306 -93.4144 152° Southeast 236 272 4,000 -960 Descending Minneapolis Center
02:30PM 44.9878 -93.3822 152° Southeast 177 204 3,400 -540 Descending Minneapolis Center
02:31PM 44.9497 -93.3500 149° Southeast 162 186 3,000 -660 Descending Minneapolis Center
02:32PM 44.9258 -93.2961 122° Southeast 162 186 2,100 -840 Descending Minneapolis Center
02:33PM 44.9050 -93.2478 121° Southeast 119 137 1,300 -780 Descending Minneapolis Center